createdAt,value
2022-11-07T00:01:41.529Z,9.35
2022-11-07T00:04:08.326Z,9.34
2022-11-07T00:06:36.983Z,9.33
2022-11-07T00:09:04.076Z,9.32
2022-11-07T00:11:30.898Z,9.32
2022-11-07T00:13:57.695Z,9.30
2022-11-07T00:16:26.047Z,9.31
2022-11-07T00:18:52.807Z,9.29
2022-11-07T00:21:19.521Z,9.28
2022-11-07T00:23:46.199Z,9.27
2022-11-07T00:26:14.241Z,9.25
2022-11-07T00:28:43.061Z,9.24
2022-11-07T00:31:12.091Z,9.24
2022-11-07T00:33:39.100Z,9.23
2022-11-07T00:36:06.360Z,9.20
2022-11-07T00:38:33.283Z,9.19
2022-11-07T00:41:02.731Z,9.17
2022-11-07T00:43:30.484Z,9.16
2022-11-07T00:45:59.684Z,9.15
2022-11-07T00:48:26.433Z,9.13
2022-11-07T00:50:53.187Z,9.11
2022-11-07T00:53:19.896Z,9.11
2022-11-07T00:55:47.045Z,9.10
2022-11-07T00:58:15.443Z,9.08
2022-11-07T01:00:42.583Z,9.06
2022-11-07T01:03:27.738Z,9.04
2022-11-07T01:05:58.970Z,9.04
2022-11-07T01:08:26.389Z,9.02
2022-11-07T01:10:53.930Z,9.01
2022-11-07T01:13:21.361Z,9.00
2022-11-07T01:15:48.101Z,8.97
2022-11-07T01:18:15.140Z,8.97
2022-11-07T01:20:42.383Z,8.95
2022-11-07T01:23:09.315Z,8.94
2022-11-07T01:25:37.552Z,8.91
2022-11-07T01:28:06.354Z,8.89
2022-11-07T01:30:36.982Z,8.87
2022-11-07T01:33:03.923Z,8.86
2022-11-07T01:35:32.703Z,8.85
2022-11-07T01:37:59.447Z,8.82
2022-11-07T01:40:26.824Z,8.82
2022-11-07T01:42:54.136Z,8.80
2022-11-07T01:45:30.582Z,8.78
2022-11-07T01:48:01.402Z,8.77
2022-11-07T01:50:29.649Z,8.75
2022-11-07T01:52:57.501Z,8.73
2022-11-07T01:55:34.816Z,8.71
2022-11-07T01:58:05.416Z,8.69
2022-11-07T02:00:33.932Z,8.66
2022-11-07T02:03:12.483Z,8.64
2022-11-07T02:05:52.176Z,8.61
2022-11-07T02:08:20.177Z,8.60
2022-11-07T02:10:48.054Z,8.57
2022-11-07T02:13:24.903Z,8.56
2022-11-07T02:15:51.745Z,8.54
2022-11-07T02:18:18.753Z,8.52
2022-11-07T02:20:46.656Z,8.50
2022-11-07T02:23:21.611Z,8.48
2022-11-07T02:25:48.632Z,8.45
2022-11-07T02:28:16.331Z,8.44
2022-11-07T02:30:43.279Z,8.40
2022-11-07T02:33:21.592Z,8.38
2022-11-07T02:35:52.517Z,8.35
2022-11-07T02:38:36.852Z,8.34
2022-11-07T02:41:05.951Z,8.32
2022-11-07T02:43:35.898Z,8.30
2022-11-07T02:46:06.927Z,8.29
2022-11-07T02:48:42.476Z,8.26
2022-11-07T02:51:09.445Z,8.25
2022-11-07T02:53:36.248Z,8.23
2022-11-07T02:56:04.080Z,8.20
2022-11-07T02:58:31.056Z,8.18
2022-11-07T03:01:02.489Z,8.16
2022-11-07T03:03:29.979Z,8.13
2022-11-07T03:05:56.729Z,8.12
2022-11-07T03:08:23.399Z,8.10
2022-11-07T03:10:50.090Z,8.07
2022-11-07T03:13:17.126Z,8.04
2022-11-07T03:15:44.090Z,8.03
2022-11-07T03:18:10.780Z,8.02
2022-11-07T03:20:37.464Z,8.00
2022-11-07T03:23:04.194Z,7.97
2022-11-07T03:25:30.864Z,7.95
2022-11-07T03:27:57.576Z,7.92
2022-11-07T03:30:24.414Z,7.89
2022-11-07T03:32:55.026Z,7.87
2022-11-07T03:35:22.324Z,7.85
2022-11-07T03:37:49.607Z,7.84
2022-11-07T03:40:17.099Z,7.82
2022-11-07T03:42:44.996Z,7.81
2022-11-07T03:45:13.817Z,7.81
2022-11-07T03:47:42.817Z,7.79
2022-11-07T03:50:16.258Z,7.76
2022-11-07T03:52:43.636Z,7.74
2022-11-07T03:55:11.630Z,7.71
2022-11-07T03:57:38.406Z,7.69
2022-11-07T04:00:06.795Z,7.67
2022-11-07T04:02:38.798Z,7.65
2022-11-07T04:05:06.666Z,7.63
2022-11-07T04:07:33.400Z,7.60
2022-11-07T04:10:00.147Z,7.58
2022-11-07T04:12:45.499Z,7.57
2022-11-07T04:15:30.824Z,7.54
2022-11-07T04:17:57.484Z,7.52
2022-11-07T04:20:24.174Z,7.50
2022-11-07T04:22:50.895Z,7.48
2022-11-07T04:25:17.563Z,7.47
2022-11-07T04:27:44.318Z,7.46
2022-11-07T04:30:27.612Z,7.45
2022-11-07T04:32:57.507Z,7.44
2022-11-07T04:35:27.117Z,7.41
2022-11-07T04:37:54.059Z,7.38
2022-11-07T04:40:21.828Z,7.35
2022-11-07T04:42:49.409Z,7.34
2022-11-07T04:45:17.020Z,7.33
2022-11-07T04:47:43.691Z,7.31
2022-11-07T04:50:12.715Z,7.29
2022-11-07T04:52:39.850Z,7.26
2022-11-07T04:55:08.309Z,7.24
2022-11-07T04:57:35.402Z,7.22
2022-11-07T05:00:04.104Z,7.18
2022-11-07T05:02:30.850Z,7.17
2022-11-07T05:04:57.563Z,7.15
2022-11-07T05:07:24.334Z,7.14
2022-11-07T05:09:51.055Z,7.11
2022-11-07T05:12:17.724Z,7.05
2022-11-07T05:14:44.415Z,7.07
2022-11-07T05:17:15.040Z,7.05
2022-11-07T05:19:45.286Z,7.04
2022-11-07T05:22:30.868Z,7.01
2022-11-07T05:24:57.589Z,6.98
2022-11-07T05:27:24.359Z,6.96
2022-11-07T05:29:51.372Z,6.96
2022-11-07T05:32:18.659Z,6.95
2022-11-07T05:34:45.373Z,6.94
2022-11-07T05:37:12.853Z,6.92
2022-11-07T05:39:39.653Z,6.91
2022-11-07T05:42:06.554Z,6.90
2022-11-07T05:44:33.223Z,6.90
2022-11-07T05:47:00.635Z,6.86
2022-11-07T05:49:27.316Z,6.86
2022-11-07T05:51:54.149Z,6.87
2022-11-07T05:54:20.899Z,6.85
2022-11-07T05:56:47.567Z,6.84
2022-11-07T05:59:14.570Z,6.82
2022-11-07T06:01:41.533Z,6.83
2022-11-07T06:04:08.664Z,6.82
2022-11-07T06:06:35.412Z,6.83
2022-11-07T06:09:02.536Z,6.83
2022-11-07T06:11:32.080Z,6.83
2022-11-07T06:13:58.861Z,6.80
2022-11-07T06:16:27.142Z,6.81
2022-11-07T06:18:53.832Z,6.82
2022-11-07T06:21:20.543Z,6.84
2022-11-07T06:23:47.569Z,6.85
2022-11-07T06:26:14.340Z,6.86
2022-11-07T06:28:41.088Z,6.89
2022-11-07T06:31:07.827Z,6.93
2022-11-07T06:33:34.537Z,6.95
2022-11-07T06:36:10.113Z,6.98
2022-11-07T06:38:38.425Z,7.01
2022-11-07T06:41:06.936Z,7.04
2022-11-07T06:43:34.147Z,7.06
2022-11-07T06:46:04.435Z,7.08
2022-11-07T06:48:31.358Z,7.13
2022-11-07T06:50:59.766Z,7.17
2022-11-07T06:53:27.167Z,7.22
2022-11-07T06:55:56.315Z,7.27
2022-11-07T06:58:23.037Z,7.34
2022-11-07T07:00:49.829Z,7.39
2022-11-07T07:03:17.301Z,7.47
2022-11-07T07:05:44.531Z,7.57
2022-11-07T07:08:12.528Z,7.73
2022-11-07T07:10:42.788Z,7.90
2022-11-07T07:13:10.449Z,8.01
2022-11-07T07:15:50.273Z,8.14
2022-11-07T07:18:18.909Z,8.23
2022-11-07T07:20:46.798Z,8.32
2022-11-07T07:23:13.706Z,8.38
2022-11-07T07:25:40.356Z,8.37
2022-11-07T07:28:07.027Z,8.37
2022-11-07T07:30:33.801Z,8.41
2022-11-07T07:33:00.467Z,8.42
2022-11-07T07:35:27.231Z,8.53
2022-11-07T07:37:53.965Z,8.62
2022-11-07T07:40:21.411Z,8.72
2022-11-07T07:42:48.373Z,8.90
2022-11-07T07:45:16.304Z,8.96
2022-11-07T07:47:43.782Z,8.99
2022-11-07T07:50:11.804Z,9.15
2022-11-07T07:52:38.656Z,9.31
2022-11-07T07:55:09.624Z,9.52
2022-11-07T07:57:41.400Z,9.72
2022-11-07T08:00:10.984Z,9.87
2022-11-07T08:02:43.783Z,9.93
2022-11-07T08:05:12.680Z,10.10
2022-11-07T08:07:50.466Z,10.24
2022-11-07T08:13:05.688Z,10.79
2022-11-07T08:15:32.644Z,11.02
2022-11-07T08:18:03.148Z,11.02
2022-11-07T08:20:30.011Z,11.13
2022-11-07T08:23:05.338Z,11.39
2022-11-07T08:25:32.644Z,11.72
2022-11-07T08:27:59.954Z,11.84
2022-11-07T08:30:27.805Z,12.12
2022-11-07T08:32:56.054Z,12.41
2022-11-07T08:35:22.768Z,12.68
2022-11-07T08:37:52.755Z,12.80
2022-11-07T08:40:20.084Z,12.83
2022-11-07T08:42:46.824Z,13.07
2022-11-07T08:45:13.528Z,13.08
2022-11-07T08:47:40.259Z,13.21
2022-11-07T08:50:07.633Z,13.20
2022-11-07T08:52:38.238Z,13.20
2022-11-07T08:55:05.430Z,13.20
2022-11-07T08:57:32.229Z,13.40
2022-11-07T08:59:58.990Z,13.54
2022-11-07T09:02:57.697Z,13.51
2022-11-07T09:05:12.382Z,13.58
2022-11-07T09:07:39.726Z,13.92
2022-11-07T09:10:07.038Z,14.26
2022-11-07T09:12:33.809Z,14.23
2022-11-07T09:15:00.547Z,14.31
2022-11-07T09:17:27.246Z,14.29
2022-11-07T09:19:54.017Z,14.68
2022-11-07T09:22:21.367Z,14.71
2022-11-07T09:24:48.099Z,14.94
2022-11-07T09:27:15.053Z,15.16
2022-11-07T09:29:41.770Z,15.61
2022-11-07T09:32:30.836Z,15.78
2022-11-07T09:34:59.292Z,16.07
2022-11-07T09:37:28.891Z,16.27
2022-11-07T09:39:55.996Z,16.51
2022-11-07T09:42:44.151Z,16.90
2022-11-07T09:45:15.208Z,16.73
2022-11-07T09:47:50.147Z,16.99
2022-11-07T09:50:36.263Z,16.71
2022-11-07T09:53:16.091Z,16.41
2022-11-07T09:55:49.733Z,16.49
2022-11-07T09:58:40.380Z,16.23
2022-11-07T10:01:13.799Z,16.44
2022-11-07T10:03:52.861Z,16.61
2022-11-07T10:06:36.006Z,16.65
2022-11-07T10:09:18.549Z,16.99
2022-11-07T10:12:04.172Z,16.73
2022-11-07T10:14:58.847Z,16.65
2022-11-07T10:17:58.007Z,16.80
2022-11-07T10:20:30.374Z,16.73
2022-11-07T10:23:28.492Z,16.78
2022-11-07T10:26:10.370Z,16.52
2022-11-07T10:29:12.907Z,16.67
2022-11-07T10:31:49.211Z,16.53
2022-11-07T10:34:40.412Z,16.49
2022-11-07T10:37:08.543Z,16.49
2022-11-07T10:39:35.256Z,16.84
2022-11-07T10:42:07.754Z,16.83
2022-11-07T10:44:35.179Z,16.74
2022-11-07T10:47:02.942Z,16.87
2022-11-07T10:49:32.173Z,16.68
2022-11-07T10:52:18.553Z,16.76
2022-11-07T10:54:46.432Z,16.72
2022-11-07T10:57:21.882Z,16.75
2022-11-07T10:59:51.431Z,16.51
2022-11-07T11:02:22.594Z,16.57
2022-11-07T11:04:53.559Z,16.53
2022-11-07T11:07:28.220Z,17.10
2022-11-07T11:09:57.680Z,17.04
2022-11-07T11:12:28.533Z,17.03
2022-11-07T11:15:11.565Z,17.29
2022-11-07T11:17:38.968Z,17.34
2022-11-07T11:20:22.895Z,17.24
2022-11-07T11:22:49.630Z,17.73
2022-11-07T11:25:21.281Z,17.80
2022-11-07T11:27:54.456Z,17.67
2022-11-07T11:30:21.851Z,17.70
2022-11-07T11:32:56.747Z,17.77
2022-11-07T11:35:51.563Z,17.86
2022-11-07T11:38:39.571Z,17.62
2022-11-07T11:41:36.241Z,17.69
2022-11-07T11:44:13.828Z,17.71
2022-11-07T11:47:28.007Z,17.40
2022-11-07T11:50:09.888Z,17.43
2022-11-07T11:52:36.678Z,17.35
2022-11-07T11:55:12.596Z,17.29
2022-11-07T11:58:31.001Z,17.16
2022-11-07T12:01:20.729Z,17.20
2022-11-07T12:04:03.733Z,17.04
2022-11-07T12:06:45.728Z,16.95
2022-11-07T12:09:51.087Z,16.86
2022-11-07T12:12:53.296Z,16.79
2022-11-07T12:15:19.980Z,16.64
2022-11-07T12:18:11.627Z,16.71
2022-11-07T12:20:54.999Z,16.36
2022-11-07T12:24:09.915Z,16.38
2022-11-07T12:26:50.269Z,16.27
2022-11-07T12:29:31.964Z,16.30
2022-11-07T12:32:23.244Z,16.08
2022-11-07T12:35:02.150Z,16.16
2022-11-07T12:37:44.003Z,15.92
2022-11-07T12:40:36.980Z,15.92
2022-11-07T12:43:18.078Z,15.81
2022-11-07T12:45:49.323Z,15.67
2022-11-07T12:48:46.632Z,15.61
2022-11-07T12:51:20.360Z,15.47
2022-11-07T12:54:00.672Z,15.40
2022-11-07T12:56:32.674Z,15.31
2022-11-07T12:59:03.410Z,15.28
2022-11-07T13:01:44.537Z,15.26
2022-11-07T13:04:21.731Z,15.13
2022-11-07T13:06:54.469Z,15.02
2022-11-07T13:09:27.725Z,14.81
2022-11-07T13:11:58.486Z,14.70
2022-11-07T13:14:31.732Z,14.65
2022-11-07T13:17:01.543Z,14.41
2022-11-07T13:19:34.285Z,14.22
2022-11-07T13:22:05.589Z,14.20
2022-11-07T13:24:36.969Z,14.29
2022-11-07T13:27:19.701Z,14.15
2022-11-07T13:29:46.343Z,13.97
2022-11-07T13:32:14.852Z,13.75
2022-11-07T13:35:00.113Z,13.71
2022-11-07T13:37:31.602Z,13.78
2022-11-07T13:40:24.579Z,13.86
2022-11-07T13:43:11.980Z,13.63
2022-11-07T13:45:52.030Z,13.42
2022-11-07T13:48:24.965Z,13.24
2022-11-07T13:51:05.418Z,13.13
2022-11-07T13:53:53.810Z,12.94
2022-11-07T13:56:37.501Z,12.78
2022-11-07T13:59:30.320Z,12.66
2022-11-07T14:01:59.329Z,12.49
2022-11-07T14:04:28.790Z,12.36
2022-11-07T14:06:58.253Z,12.24
2022-11-07T14:09:26.742Z,12.09
2022-11-07T14:11:54.132Z,12.04
2022-11-07T14:14:23.970Z,11.95
2022-11-07T14:16:54.963Z,11.80
2022-11-07T14:19:26.590Z,11.65
2022-11-07T14:21:55.439Z,11.47
2022-11-07T14:24:27.846Z,11.34
2022-11-07T14:27:06.791Z,11.23
2022-11-07T14:29:33.781Z,11.11
2022-11-07T14:32:02.679Z,10.96
2022-11-07T14:34:29.641Z,10.82
2022-11-07T14:36:59.554Z,10.67
2022-11-07T14:39:30.563Z,10.56
2022-11-07T14:42:01.162Z,10.43
2022-11-07T14:47:28.664Z,10.25
2022-11-07T14:49:56.494Z,10.19
2022-11-07T14:52:33.890Z,10.10
2022-11-07T14:55:12.413Z,10.02
2022-11-07T14:57:39.750Z,9.94
2022-11-07T15:00:18.622Z,9.87
2022-11-07T15:02:48.904Z,9.79
2022-11-07T15:05:25.176Z,9.71
2022-11-07T15:07:52.456Z,9.65
2022-11-07T15:10:30.752Z,9.57
2022-11-07T15:13:00.583Z,9.52
2022-11-07T15:15:33.078Z,9.46
2022-11-07T15:18:02.685Z,9.42
2022-11-07T15:20:35.330Z,9.38
2022-11-07T15:23:12.603Z,9.35
2022-11-07T15:26:19.385Z,9.33
2022-11-07T15:28:51.511Z,9.31
2022-11-07T15:31:25.614Z,9.29
2022-11-07T15:33:52.602Z,9.26
2022-11-07T15:36:20.521Z,9.21
2022-11-07T15:38:49.333Z,9.19
2022-11-07T15:41:16.144Z,9.14
2022-11-07T15:43:43.133Z,9.10
2022-11-07T15:46:34.684Z,9.04
2022-11-07T15:49:02.024Z,8.98
2022-11-07T15:51:29.824Z,8.94
2022-11-07T15:53:56.755Z,8.90
2022-11-07T15:56:25.335Z,8.84
2022-11-07T15:58:54.136Z,8.81
2022-11-07T16:01:21.708Z,8.77
2022-11-07T16:03:48.466Z,8.74
2022-11-07T16:06:25.720Z,8.71
2022-11-07T16:08:52.912Z,8.66
2022-11-07T16:11:19.713Z,8.59
2022-11-07T16:13:46.455Z,8.53
2022-11-07T16:16:26.708Z,8.48
2022-11-07T16:18:53.798Z,8.41
2022-11-07T16:21:20.560Z,8.35
2022-11-07T16:23:50.050Z,8.29
2022-11-07T16:26:24.886Z,8.24
2022-11-07T16:28:51.597Z,8.20
2022-11-07T16:31:18.376Z,8.17
2022-11-07T16:33:45.088Z,8.13
2022-11-07T16:36:24.623Z,8.10
2022-11-07T16:38:52.136Z,8.08
2022-11-07T16:41:19.093Z,8.04
2022-11-07T16:43:47.414Z,8.01
2022-11-07T16:46:17.197Z,7.97
2022-11-07T16:48:46.634Z,7.94
2022-11-07T16:51:15.755Z,7.90
2022-11-07T16:53:43.596Z,7.86
2022-11-07T16:56:24.268Z,7.81
2022-11-07T16:58:53.925Z,7.75
2022-11-07T17:01:22.744Z,7.71
2022-11-07T17:03:49.517Z,7.67
2022-11-07T17:06:33.137Z,7.65
2022-11-07T17:09:08.976Z,7.61
2022-11-07T17:11:37.578Z,7.58
2022-11-07T17:14:04.300Z,7.54
2022-11-07T17:16:35.028Z,7.48
2022-11-07T17:19:03.899Z,7.43
2022-11-07T17:21:35.644Z,7.38
2022-11-07T17:24:03.674Z,7.33
2022-11-07T17:26:33.985Z,7.26
2022-11-07T17:29:01.564Z,7.24
2022-11-07T17:31:28.329Z,7.21
2022-11-07T17:33:55.017Z,7.18
2022-11-07T17:36:35.250Z,7.17
2022-11-07T17:39:10.178Z,7.16
2022-11-07T17:41:38.807Z,7.14
2022-11-07T17:44:05.697Z,7.13
2022-11-07T17:46:34.010Z,7.13
2022-11-07T17:49:04.320Z,7.12
2022-11-07T17:51:31.357Z,7.11
2022-11-07T17:53:58.262Z,7.08
2022-11-07T17:56:27.608Z,7.06
2022-11-07T17:58:59.739Z,7.02
2022-11-07T18:01:29.961Z,6.98
2022-11-07T18:03:57.487Z,6.94
2022-11-07T18:06:25.536Z,6.90
2022-11-07T18:08:54.344Z,6.87
2022-11-07T18:11:24.474Z,6.84
2022-11-07T18:13:53.075Z,6.78
2022-11-07T18:16:29.530Z,6.72
2022-11-07T18:19:00.711Z,6.65
2022-11-07T18:21:28.459Z,6.60
2022-11-07T18:23:56.705Z,6.57
2022-11-07T18:26:29.943Z,6.52
2022-11-07T18:29:01.378Z,6.46
2022-11-07T18:31:28.169Z,6.40
2022-11-07T18:33:59.287Z,6.35
2022-11-07T18:36:27.064Z,6.32
2022-11-07T18:38:53.789Z,6.28
2022-11-07T18:41:23.056Z,6.25
2022-11-07T18:43:50.251Z,6.20
2022-11-07T18:46:21.368Z,6.16
2022-11-07T18:48:50.056Z,6.14
2022-11-07T18:51:20.516Z,6.10
2022-11-07T18:53:48.446Z,6.07
2022-11-07T18:56:15.908Z,6.05
2022-11-07T18:58:43.527Z,6.01
2022-11-07T19:01:21.578Z,5.99
2022-11-07T19:03:48.363Z,5.98
2022-11-07T19:06:18.315Z,5.97
2022-11-07T19:08:49.312Z,5.95
2022-11-07T19:11:20.220Z,5.92
2022-11-07T19:13:47.516Z,5.89
2022-11-07T19:16:17.010Z,5.86
2022-11-07T19:18:49.126Z,5.82
2022-11-07T19:21:20.988Z,5.77
2022-11-07T19:23:49.477Z,5.75
2022-11-07T19:26:18.548Z,5.72
2022-11-07T19:28:46.219Z,5.71
2022-11-07T19:31:13.373Z,5.71
2022-11-07T19:33:41.194Z,5.69
2022-11-07T19:36:13.500Z,5.67
2022-11-07T19:38:40.248Z,5.66
2022-11-07T19:41:08.390Z,5.63
2022-11-07T19:43:35.549Z,5.60
2022-11-07T19:46:14.765Z,5.59
2022-11-07T19:48:42.264Z,5.62
2022-11-07T19:51:18.306Z,5.62
2022-11-07T19:53:55.969Z,5.61
2022-11-07T19:56:25.011Z,5.60
2022-11-07T19:58:52.078Z,5.58
2022-11-07T20:01:25.381Z,5.56
2022-11-07T20:03:53.110Z,5.56
2022-11-07T20:06:22.927Z,5.56
2022-11-07T20:08:50.316Z,5.54
2022-11-07T20:11:19.989Z,5.51
2022-11-07T20:13:47.657Z,5.50
2022-11-07T20:16:15.328Z,5.49
2022-11-07T20:18:42.937Z,5.48
2022-11-07T20:21:15.967Z,5.45
2022-11-07T20:23:44.415Z,5.43
2022-11-07T20:26:15.909Z,5.41
2022-11-07T20:28:43.499Z,5.39
2022-11-07T20:31:18.181Z,5.37
2022-11-07T20:33:45.193Z,5.38
2022-11-07T20:36:14.352Z,5.36
2022-11-07T20:38:42.412Z,5.34
2022-11-07T20:41:10.691Z,5.31
2022-11-07T20:43:38.844Z,5.28
2022-11-07T20:46:08.723Z,5.23
2022-11-07T20:48:37.072Z,5.20
2022-11-07T20:51:11.799Z,5.17
2022-11-07T20:53:39.551Z,5.12
2022-11-07T20:56:07.913Z,5.07
2022-11-07T20:58:36.930Z,5.05
2022-11-07T21:01:05.390Z,5.00
2022-11-07T21:03:33.660Z,4.96
2022-11-07T21:06:00.543Z,4.92
2022-11-07T21:08:27.463Z,4.87
2022-11-07T21:10:55.573Z,4.85
2022-11-07T21:13:22.284Z,4.83
2022-11-07T21:15:50.568Z,4.81
2022-11-07T21:18:17.970Z,4.78
2022-11-07T21:20:44.988Z,4.75
2022-11-07T21:23:11.896Z,4.73
2022-11-07T21:25:43.586Z,4.73
2022-11-07T21:28:16.356Z,4.72
2022-11-07T21:31:00.206Z,4.70
2022-11-07T21:33:26.956Z,4.68
2022-11-07T21:35:53.888Z,4.67
2022-11-07T21:38:22.317Z,4.66
2022-11-07T21:40:49.309Z,4.65
2022-11-07T21:43:16.210Z,4.66
2022-11-07T21:45:43.320Z,4.64
2022-11-07T21:48:10.611Z,4.63
2022-11-07T21:50:45.349Z,4.62
2022-11-07T21:53:12.418Z,4.62
2022-11-07T21:55:39.089Z,4.62
2022-11-07T21:58:05.742Z,4.60
2022-11-07T22:00:36.247Z,4.59
2022-11-07T22:03:04.143Z,4.58
2022-11-07T22:05:30.971Z,4.59
2022-11-07T22:07:58.029Z,4.59
2022-11-07T22:10:24.828Z,4.59
2022-11-07T22:12:52.458Z,4.57
2022-11-07T22:15:19.423Z,4.56
2022-11-07T22:17:46.099Z,4.55
2022-11-07T22:20:12.967Z,4.53
2022-11-07T22:22:39.923Z,4.53
2022-11-07T22:25:06.982Z,4.52
2022-11-07T22:27:33.918Z,4.49
2022-11-07T22:30:00.664Z,4.49
2022-11-07T22:32:27.355Z,4.48
2022-11-07T22:34:54.068Z,4.47
2022-11-07T22:37:20.952Z,4.45
2022-11-07T22:39:47.675Z,4.43
2022-11-07T22:42:17.339Z,4.39
2022-11-07T22:44:46.403Z,4.36
2022-11-07T22:47:13.074Z,4.33
2022-11-07T22:49:39.774Z,4.25
2022-11-07T22:52:06.436Z,4.28
2022-11-07T22:54:33.118Z,4.25
2022-11-07T22:56:59.792Z,4.21
2022-11-07T22:59:26.711Z,4.17
2022-11-07T23:01:53.519Z,4.13
2022-11-07T23:04:20.290Z,4.09
2022-11-07T23:06:47.046Z,4.07
2022-11-07T23:09:15.886Z,4.06
2022-11-07T23:11:48.355Z,4.04
2022-11-07T23:14:18.808Z,4.02
2022-11-07T23:16:48.461Z,4.00
2022-11-07T23:19:17.868Z,3.99
2022-11-07T23:21:44.693Z,3.98
2022-11-07T23:24:12.410Z,3.96
2022-11-07T23:26:39.332Z,3.97
2022-11-07T23:29:18.198Z,3.96
2022-11-07T23:31:46.839Z,3.96
2022-11-07T23:34:14.529Z,3.95
2022-11-07T23:36:43.417Z,3.94
2022-11-07T23:39:16.519Z,3.96
2022-11-07T23:41:44.563Z,3.97
2022-11-07T23:44:12.145Z,3.97
2022-11-07T23:46:57.906Z,3.96
2022-11-07T23:49:54.216Z,3.95
2022-11-07T23:52:21.085Z,3.93
2022-11-07T23:55:06.537Z,3.92
2022-11-07T23:57:55.223Z,3.91
